Time;durP1;ratioP1;P1;durP2;ratioP2;P2;SDS_P1;SDS_P2;PMS_P1;PMS_P2;Temp;Humidity;BMP_temperature;BMP_pressure;BME280_temperature;BME280_humidity;BME280_pressure;Samples;Min_cycle;Max_cycle;Signal;HPM_P1;HPM_P2
2023/07/05 00:00:05;;;;;;;;;;;17.40;99.90;;;;;;5022638;28;19925;-62
2023/07/05 00:02:37;;;;;;;;;;;17.20;99.90;;;;;;5028994;28;19994;-62
2023/07/05 00:05:09;;;;;;;;;;;17.10;99.90;;;;;;5017693;28;20385;-62
2023/07/05 00:07:41;;;;;;;;;;;17.10;99.90;;;;;;5017597;28;19929;-63
2023/07/05 00:10:12;;;;;;;;;;;17.10;99.90;;;;;;5027354;28;19925;-63
2023/07/05 00:12:39;;;;;;;;;;;17.10;99.90;;;;;;5029285;28;19933;-63
2023/07/05 00:15:11;;;;;;;;;;;17.20;99.90;;;;;;5017167;28;19980;-63
2023/07/05 00:17:43;;;;;;;;;;;17.20;99.90;;;;;;5021809;28;19929;-65
2023/07/05 00:20:15;;;;;;;;;;;17.10;99.90;;;;;;5016716;28;19929;-66
2023/07/05 00:22:47;;;;;;;;;;;17.20;99.90;;;;;;5027904;28;19925;-65
2023/07/05 00:25:14;;;;;;;;;;;17.20;99.90;;;;;;5018017;28;19935;-65
2023/07/05 00:27:41;;;;;;;;;;;17.20;99.90;;;;;;5023084;28;19925;-66
2023/07/05 00:30:13;;;;;;;;;;;17.20;99.90;;;;;;5018762;28;20301;-66
2023/07/05 00:32:45;;;;;;;;;;;17.20;99.90;;;;;;5027774;28;20404;-65
2023/07/05 00:35:11;;;;;;;;;;;17.20;99.90;;;;;;5019297;28;20432;-66
2023/07/05 00:37:43;;;;;;;;;;;17.20;99.90;;;;;;5011584;28;19932;-66
2023/07/05 00:40:15;;;;;;;;;;;17.20;99.90;;;;;;5019727;28;20372;-66
2023/07/05 00:42:46;;;;;;;;;;;17.20;99.90;;;;;;5019416;28;19965;-66
2023/07/05 00:45:18;;;;;;;;;;;17.30;99.90;;;;;;5026435;28;19925;-66
2023/07/05 00:47:50;;;;;;;;;;;17.30;99.90;;;;;;5028341;28;19925;-66
2023/07/05 00:50:20;;;;;;;;;;;17.30;99.90;;;;;;5025628;28;20032;-66
2023/07/05 00:52:53;;;;;;;;;;;17.30;99.90;;;;;;5025876;28;19935;-66
2023/07/05 00:55:26;;;;;;;;;;;17.30;99.90;;;;;;5023059;28;20497;-66
2023/07/05 00:57:57;;;;;;;;;;;17.30;99.90;;;;;;5026098;28;20420;-66
2023/07/05 01:00:30;;;;;;;;;;;17.30;99.90;;;;;;5023920;28;20036;-66
2023/07/05 01:02:59;;;;;;;;;;;17.20;99.90;;;;;;5023319;28;19931;-65
2023/07/05 01:05:31;;;;;;;;;;;17.20;99.90;;;;;;5012240;28;19941;-65
2023/07/05 01:08:04;;;;;;;;;;;17.20;99.90;;;;;;5020160;28;19925;-65
2023/07/05 01:10:36;;;;;;;;;;;17.10;99.90;;;;;;5020723;28;19932;-65
2023/07/05 01:13:10;;;;;;;;;;;17.10;99.90;;;;;;5022104;28;19926;-65
2023/07/05 01:15:49;;;;;;;;;;;17.10;99.90;;;;;;5029228;28;20301;-66
2023/07/05 01:18:30;;;;;;;;;;;17.00;99.90;;;;;;5018303;28;19926;-65
2023/07/05 01:21:17;;;;;;;;;;;16.90;99.90;;;;;;5026263;28;19961;-65
2023/07/05 01:23:56;;;;;;;;;;;16.90;99.90;;;;;;5031471;28;20013;-66
2023/07/05 01:26:37;;;;;;;;;;;16.80;99.90;;;;;;5026531;28;19925;-65
2023/07/05 01:29:09;;;;;;;;;;;16.80;99.90;;;;;;5016796;28;20305;-65
2023/07/05 01:31:47;;;;;;;;;;;16.60;99.90;;;;;;5026548;28;19970;-65
2023/07/05 01:34:22;;;;;;;;;;;16.60;99.90;;;;;;5027755;28;19959;-66
2023/07/05 01:36:55;;;;;;;;;;;16.70;99.90;;;;;;5032953;28;19932;-65
2023/07/05 01:39:27;;;;;;;;;;;16.70;99.90;;;;;;5014843;28;20302;-65
2023/07/05 01:42:01;;;;;;;;;;;16.70;99.90;;;;;;5014550;28;19951;-66
2023/07/05 01:44:33;;;;;;;;;;;16.70;99.90;;;;;;5013861;28;19929;-65
2023/07/05 01:47:12;;;;;;;;;;;16.60;99.90;;;;;;5026172;28;19980;-65
2023/07/05 01:49:48;;;;;;;;;;;16.60;99.90;;;;;;5026184;28;19929;-65
2023/07/05 01:52:51;;;;;;;;;;;16.60;99.90;;;;;;5014808;28;19933;-66
2023/07/05 01:55:27;;;;;;;;;;;16.60;99.90;;;;;;5013552;28;19936;-65
2023/07/05 01:58:11;;;;;;;;;;;16.60;99.90;;;;;;5026006;28;20024;-65
2023/07/05 02:00:46;;;;;;;;;;;16.50;99.90;;;;;;5011832;28;19944;-65
2023/07/05 02:03:19;;;;;;;;;;;16.50;99.90;;;;;;5027982;28;19940;-65
2023/07/05 02:05:47;;;;;;;;;;;16.60;99.90;;;;;;5033281;28;19991;-65
2023/07/05 02:08:24;;;;;;;;;;;16.50;99.90;;;;;;5021926;28;19936;-66
2023/07/05 02:10:56;;;;;;;;;;;16.50;99.90;;;;;;5032493;28;19929;-65
2023/07/05 02:13:28;;;;;;;;;;;16.50;99.90;;;;;;5022526;28;19930;-65
2023/07/05 02:16:00;;;;;;;;;;;16.50;99.90;;;;;;5031818;28;19929;-66
2023/07/05 02:18:29;;;;;;;;;;;16.50;99.90;;;;;;5023590;28;19945;-65
2023/07/05 02:20:56;;;;;;;;;;;16.50;99.90;;;;;;5030765;28;19925;-65
2023/07/05 02:23:28;;;;;;;;;;;16.50;99.90;;;;;;5021153;28;20294;-65
2023/07/05 02:26:04;;;;;;;;;;;16.40;99.90;;;;;;5022649;28;20028;-65
2023/07/05 02:28:36;;;;;;;;;;;16.40;99.90;;;;;;5030894;28;19929;-65
2023/07/05 02:31:11;;;;;;;;;;;16.40;99.90;;;;;;5022613;28;19929;-65
2023/07/05 02:33:44;;;;;;;;;;;16.30;99.90;;;;;;5027110;28;19932;-65
2023/07/05 02:36:16;;;;;;;;;;;16.30;99.90;;;;;;5023426;28;19926;-65
2023/07/05 02:38:47;;;;;;;;;;;16.30;99.90;;;;;;5024680;28;19925;-65
2023/07/05 02:41:20;;;;;;;;;;;16.30;99.90;;;;;;5029278;28;19960;-65
2023/07/05 02:43:52;;;;;;;;;;;16.30;99.90;;;;;;5022098;28;19925;-65
2023/07/05 02:46:25;;;;;;;;;;;16.40;99.90;;;;;;5029200;28;19926;-65
2023/07/05 02:48:57;;;;;;;;;;;16.40;99.90;;;;;;5029595;28;19929;-65
2023/07/05 02:51:32;;;;;;;;;;;16.40;99.90;;;;;;5029897;28;20024;-65
2023/07/05 02:54:03;;;;;;;;;;;16.40;99.90;;;;;;5021458;28;19930;-65
2023/07/05 02:56:35;;;;;;;;;;;16.40;99.90;;;;;;5029239;28;19925;-66
2023/07/05 02:59:08;;;;;;;;;;;16.40;99.90;;;;;;5020717;28;19926;-65
2023/07/05 03:01:40;;;;;;;;;;;16.40;99.90;;;;;;5023486;28;20681;-65
2023/07/05 03:04:13;;;;;;;;;;;16.40;99.90;;;;;;5019807;28;20295;-65
2023/07/05 03:06:45;;;;;;;;;;;16.40;99.90;;;;;;5022707;28;20536;-65
2023/07/05 03:09:18;;;;;;;;;;;16.40;99.90;;;;;;5028361;28;19984;-65
2023/07/05 03:11:49;;;;;;;;;;;16.30;99.90;;;;;;5021691;28;19929;-66
2023/07/05 03:14:21;;;;;;;;;;;16.30;99.90;;;;;;5021607;28;19960;-65
2023/07/05 03:16:53;;;;;;;;;;;16.10;99.90;;;;;;5021359;28;19932;-66
2023/07/05 03:19:25;;;;;;;;;;;16.00;99.90;;;;;;5012440;28;20015;-66
2023/07/05 03:21:57;;;;;;;;;;;15.90;99.90;;;;;;5023762;28;19929;-65
2023/07/05 03:24:28;;;;;;;;;;;15.90;99.90;;;;;;5020869;28;20381;-65
2023/07/05 03:27:00;;;;;;;;;;;15.80;99.90;;;;;;5029878;28;19969;-65
2023/07/05 03:29:32;;;;;;;;;;;15.80;99.90;;;;;;5030456;28;20044;-65
2023/07/05 03:31:59;;;;;;;;;;;15.90;99.90;;;;;;5029791;28;19936;-65
2023/07/05 03:34:31;;;;;;;;;;;15.90;99.90;;;;;;5030167;28;19929;-65
2023/07/05 03:37:03;;;;;;;;;;;16.00;99.90;;;;;;5029023;28;19932;-65
2023/07/05 03:39:35;;;;;;;;;;;16.00;99.90;;;;;;5024907;28;19967;-65
2023/07/05 03:42:07;;;;;;;;;;;16.00;99.90;;;;;;5025075;28;20324;-65
2023/07/05 03:44:34;;;;;;;;;;;15.90;99.90;;;;;;5023163;28;19929;-65
2023/07/05 03:47:06;;;;;;;;;;;15.90;99.90;;;;;;5022974;28;19925;-65
2023/07/05 03:49:37;;;;;;;;;;;15.90;99.90;;;;;;5028981;28;19925;-66
2023/07/05 03:52:05;;;;;;;;;;;15.90;99.90;;;;;;5019288;28;19936;-65
2023/07/05 03:54:36;;;;;;;;;;;15.90;99.90;;;;;;5022152;28;19930;-65
2023/07/05 03:57:08;;;;;;;;;;;16.00;99.90;;;;;;5017785;28;19925;-65
2023/07/05 03:59:40;;;;;;;;;;;15.90;99.90;;;;;;5019172;28;19956;-65
2023/07/05 04:02:12;;;;;;;;;;;16.00;99.90;;;;;;5023891;28;20043;-66
2023/07/05 04:04:44;;;;;;;;;;;15.90;99.90;;;;;;5021659;28;20475;-65
2023/07/05 04:07:16;;;;;;;;;;;15.90;99.90;;;;;;5016157;28;20020;-65
2023/07/05 04:09:48;;;;;;;;;;;15.90;99.90;;;;;;5021651;28;20389;-64
2023/07/05 04:12:20;;;;;;;;;;;16.00;99.90;;;;;;5018904;28;19961;-66
2023/07/05 04:14:51;;;;;;;;;;;16.00;99.90;;;;;;5020997;28;20411;-65
2023/07/05 04:17:23;;;;;;;;;;;16.10;99.90;;;;;;5026069;28;19926;-65
2023/07/05 04:19:55;;;;;;;;;;;16.20;99.90;;;;;;5016050;28;19928;-66
2023/07/05 04:22:21;;;;;;;;;;;16.20;99.90;;;;;;5018766;28;20361;-65
2023/07/05 04:24:53;;;;;;;;;;;16.20;99.90;;;;;;5026039;28;19925;-65
2023/07/05 04:27:25;;;;;;;;;;;16.20;99.90;;;;;;5013355;28;20012;-65
2023/07/05 04:29:57;;;;;;;;;;;16.10;99.90;;;;;;5022412;28;19925;-65
2023/07/05 04:32:23;;;;;;;;;;;16.10;99.90;;;;;;5028515;28;19935;-65
2023/07/05 04:34:55;;;;;;;;;;;16.10;99.90;;;;;;5023275;28;19931;-65
2023/07/05 04:37:22;;;;;;;;;;;16.00;99.90;;;;;;5025197;28;19925;-65
2023/07/05 04:39:54;;;;;;;;;;;16.00;99.90;;;;;;5022808;28;19935;-65
2023/07/05 04:42:26;;;;;;;;;;;16.00;99.90;;;;;;5024162;28;20007;-65
2023/07/05 04:44:57;;;;;;;;;;;15.90;99.90;;;;;;5030659;28;19929;-66
2023/07/05 04:47:29;;;;;;;;;;;15.90;99.90;;;;;;5037460;28;19946;-65
2023/07/05 04:50:01;;;;;;;;;;;15.90;99.90;;;;;;5025813;28;20384;-65
2023/07/05 04:52:33;;;;;;;;;;;15.80;99.90;;;;;;5022911;28;19933;-64
2023/07/05 04:55:05;;;;;;;;;;;15.80;99.90;;;;;;5024845;28;19925;-70
2023/07/05 04:57:36;;;;;;;;;;;15.80;99.90;;;;;;5026975;28;20028;-63
2023/07/05 05:00:09;;;;;;;;;;;15.80;99.90;;;;;;5021077;28;19926;-62
2023/07/05 05:02:41;;;;;;;;;;;15.80;99.90;;;;;;5022340;28;20032;-63
2023/07/05 05:05:13;;;;;;;;;;;15.80;99.90;;;;;;5023011;28;19930;-63
2023/07/05 05:07:44;;;;;;;;;;;15.80;99.90;;;;;;5022374;28;19932;-63
2023/07/05 05:10:16;;;;;;;;;;;15.80;99.90;;;;;;5025601;28;19953;-65
2023/07/05 05:12:48;;;;;;;;;;;15.90;99.90;;;;;;5026308;28;20477;-65
2023/07/05 05:15:20;;;;;;;;;;;15.90;99.90;;;;;;5027355;28;19995;-65
2023/07/05 05:17:51;;;;;;;;;;;16.00;99.90;;;;;;5013566;28;19935;-65
2023/07/05 05:20:23;;;;;;;;;;;16.00;99.90;;;;;;5024462;28;19926;-66
2023/07/05 05:22:55;;;;;;;;;;;16.10;99.90;;;;;;5025839;28;19936;-66
2023/07/05 05:25:27;;;;;;;;;;;16.20;99.90;;;;;;5018355;28;20317;-65
2023/07/05 05:27:58;;;;;;;;;;;16.30;99.90;;;;;;5026277;28;20008;-67
2023/07/05 05:30:31;;;;;;;;;;;16.30;99.90;;;;;;5027800;28;19971;-65
2023/07/05 05:32:58;;;;;;;;;;;16.40;99.90;;;;;;5025365;28;20370;-66
2023/07/05 05:35:34;;;;;;;;;;;16.40;99.90;;;;;;5025683;28;20356;-66
2023/07/05 05:38:02;;;;;;;;;;;16.50;99.90;;;;;;5008088;28;20397;-66
2023/07/05 05:40:34;;;;;;;;;;;16.50;99.90;;;;;;5026383;28;19965;-66
2023/07/05 05:43:06;;;;;;;;;;;16.50;99.90;;;;;;5024134;28;19925;-66
2023/07/05 05:45:37;;;;;;;;;;;16.50;99.90;;;;;;5026794;28;20024;-65
2023/07/05 05:48:09;;;;;;;;;;;16.60;99.90;;;;;;5029591;28;19925;-65
2023/07/05 05:50:41;;;;;;;;;;;16.50;99.90;;;;;;5028793;28;19951;-65
2023/07/05 05:53:13;;;;;;;;;;;16.50;99.90;;;;;;5025285;28;19929;-65
2023/07/05 05:55:45;;;;;;;;;;;16.50;99.90;;;;;;5032776;28;19929;-65
2023/07/05 05:58:17;;;;;;;;;;;16.50;99.90;;;;;;5032661;28;19945;-65
2023/07/05 06:00:49;;;;;;;;;;;16.60;99.90;;;;;;5028322;28;20309;-65
2023/07/05 06:03:20;;;;;;;;;;;16.70;99.90;;;;;;5026842;28;19933;-65
2023/07/05 06:05:54;;;;;;;;;;;16.80;99.90;;;;;;5027842;28;20152;-66
2023/07/05 06:08:27;;;;;;;;;;;16.80;99.90;;;;;;5030758;28;19925;-65
2023/07/05 06:11:00;;;;;;;;;;;16.80;99.90;;;;;;5027728;28;19932;-65
2023/07/05 06:13:32;;;;;;;;;;;16.80;99.90;;;;;;5038668;28;19929;-65
2023/07/05 06:16:04;;;;;;;;;;;16.80;99.90;;;;;;5025511;28;20416;-65
2023/07/05 06:18:36;;;;;;;;;;;16.70;99.90;;;;;;5023370;28;19929;-65
2023/07/05 06:21:09;;;;;;;;;;;16.70;99.90;;;;;;5023630;28;19964;-65
2023/07/05 06:23:41;;;;;;;;;;;16.70;99.90;;;;;;5027578;28;19971;-66
2023/07/05 06:26:08;;;;;;;;;;;16.80;99.90;;;;;;5025328;28;20310;-65
2023/07/05 06:28:35;;;;;;;;;;;17.00;99.90;;;;;;5029613;28;20363;-65
2023/07/05 06:31:07;;;;;;;;;;;17.10;99.90;;;;;;5023330;28;20421;-65
2023/07/05 06:33:34;;;;;;;;;;;17.30;99.90;;;;;;5020645;28;19936;-65
2023/07/05 06:36:06;;;;;;;;;;;17.40;99.90;;;;;;5022971;28;19929;-63
2023/07/05 06:38:38;;;;;;;;;;;17.50;99.90;;;;;;5029470;28;19929;-63
2023/07/05 06:41:09;;;;;;;;;;;17.50;99.90;;;;;;5031761;28;19951;-62
2023/07/05 06:43:41;;;;;;;;;;;17.40;99.90;;;;;;5021509;28;20394;-63
2023/07/05 06:46:13;;;;;;;;;;;17.40;99.90;;;;;;5017729;28;19925;-63
2023/07/05 06:48:45;;;;;;;;;;;17.40;99.90;;;;;;5019649;28;19951;-62
2023/07/05 06:51:17;;;;;;;;;;;17.40;99.90;;;;;;5018233;28;19937;-62
2023/07/05 06:53:49;;;;;;;;;;;17.40;99.90;;;;;;5021195;28;19932;-62
2023/07/05 06:56:20;;;;;;;;;;;17.40;99.90;;;;;;5018444;28;19964;-62
2023/07/05 06:58:52;;;;;;;;;;;17.40;99.90;;;;;;5027858;28;19929;-62
2023/07/05 07:01:25;;;;;;;;;;;17.50;99.90;;;;;;5015969;28;20382;-63
2023/07/05 07:03:57;;;;;;;;;;;17.50;99.90;;;;;;5038592;28;19925;-63
2023/07/05 07:06:24;;;;;;;;;;;17.50;99.90;;;;;;5028390;28;19929;-62
2023/07/05 07:08:50;;;;;;;;;;;17.50;99.90;;;;;;5019824;28;20368;-62
2023/07/05 07:11:22;;;;;;;;;;;17.60;99.90;;;;;;5029156;28;19929;-62
2023/07/05 07:13:54;;;;;;;;;;;17.70;99.90;;;;;;5019683;28;20356;-62
2023/07/05 07:16:26;;;;;;;;;;;17.70;99.90;;;;;;5019458;28;20012;-64
2023/07/05 07:18:59;;;;;;;;;;;17.70;99.90;;;;;;5018111;28;19929;-65
2023/07/05 07:21:31;;;;;;;;;;;17.80;99.90;;;;;;5018442;28;20286;-62
2023/07/05 07:24:03;;;;;;;;;;;17.90;99.90;;;;;;5022361;28;19929;-62
2023/07/05 07:26:30;;;;;;;;;;;18.10;99.90;;;;;;5026958;28;19972;-62
2023/07/05 07:29:02;;;;;;;;;;;18.20;99.90;;;;;;5025846;28;19929;-62
2023/07/05 07:31:34;;;;;;;;;;;18.20;99.90;;;;;;5029177;28;19929;-62
2023/07/05 07:34:07;;;;;;;;;;;18.30;99.90;;;;;;5027949;28;19926;-62
2023/07/05 07:36:39;;;;;;;;;;;18.40;99.90;;;;;;5026405;28;19925;-62
2023/07/05 07:39:11;;;;;;;;;;;18.60;99.90;;;;;;5025040;28;20028;-62
2023/07/05 07:41:42;;;;;;;;;;;18.70;99.90;;;;;;5025023;28;19933;-62
2023/07/05 07:44:16;;;;;;;;;;;18.90;99.90;;;;;;5025842;28;20389;-62
2023/07/05 07:46:48;;;;;;;;;;;19.00;99.90;;;;;;5025306;28;19936;-62
2023/07/05 07:49:20;;;;;;;;;;;19.20;99.90;;;;;;5024511;28;19930;-62
2023/07/05 07:51:52;;;;;;;;;;;19.30;99.90;;;;;;5029517;28;19929;-62
2023/07/05 07:54:29;;;;;;;;;;;19.40;99.90;;;;;;5022890;28;20301;-62
2023/07/05 07:57:00;;;;;;;;;;;19.60;99.90;;;;;;5023334;28;20012;-62
2023/07/05 07:59:35;;;;;;;;;;;19.60;99.90;;;;;;5023078;28;20332;-62
2023/07/05 08:02:11;;;;;;;;;;;19.80;99.90;;;;;;5021609;28;19936;-62
2023/07/05 08:04:44;;;;;;;;;;;19.80;99.90;;;;;;5026639;28;20076;-62
2023/07/05 08:07:15;;;;;;;;;;;19.90;99.90;;;;;;5038614;28;20008;-62
2023/07/05 08:09:50;;;;;;;;;;;20.10;99.90;;;;;;5020722;28;19929;-62
2023/07/05 08:12:22;;;;;;;;;;;20.20;99.90;;;;;;5023386;28;19925;-62
2023/07/05 08:14:53;;;;;;;;;;;20.20;99.90;;;;;;5021831;28;19929;-66
2023/07/05 08:17:25;;;;;;;;;;;20.30;99.90;;;;;;5022048;28;19972;-62
2023/07/05 08:19:57;;;;;;;;;;;20.50;99.90;;;;;;5023411;28;19999;-62
2023/07/05 08:22:29;;;;;;;;;;;20.60;99.90;;;;;;5019600;28;19948;-62
2023/07/05 08:25:01;;;;;;;;;;;20.60;99.90;;;;;;5017292;28;19925;-64
2023/07/05 08:27:33;;;;;;;;;;;20.60;99.90;;;;;;5014936;28;20106;-64
2023/07/05 08:30:05;;;;;;;;;;;20.70;99.90;;;;;;5025427;28;19925;-64
2023/07/05 08:32:37;;;;;;;;;;;20.70;99.90;;;;;;5044758;28;19929;-64
2023/07/05 08:35:09;;;;;;;;;;;20.90;99.90;;;;;;5021395;28;20012;-64
2023/07/05 08:37:49;;;;;;;;;;;21.20;99.90;;;;;;5026447;28;20016;-64
2023/07/05 08:40:21;;;;;;;;;;;21.40;99.90;;;;;;5023702;28;19935;-64
2023/07/05 08:42:59;;;;;;;;;;;21.50;99.90;;;;;;5026964;28;19932;-65
2023/07/05 08:45:37;;;;;;;;;;;21.60;99.90;;;;;;5026896;28;19931;-64
2023/07/05 08:48:05;;;;;;;;;;;21.70;99.90;;;;;;5017774;28;19936;-65
2023/07/05 08:50:40;;;;;;;;;;;21.80;99.90;;;;;;5022522;28;20016;-64
2023/07/05 08:53:14;;;;;;;;;;;21.80;99.90;;;;;;5023160;28;19931;-64
2023/07/05 08:55:46;;;;;;;;;;;21.60;99.90;;;;;;5024679;28;20508;-65
2023/07/05 08:58:22;;;;;;;;;;;21.50;99.90;;;;;;5028233;28;19929;-64
2023/07/05 09:00:54;;;;;;;;;;;21.50;99.90;;;;;;5020092;28;19933;-64
2023/07/05 09:03:30;;;;;;;;;;;21.40;99.90;;;;;;5026938;28;19926;-65
2023/07/05 09:06:14;;;;;;;;;;;21.50;99.90;;;;;;5028411;28;20044;-64
2023/07/05 09:09:08;;;;;;;;;;;21.60;99.90;;;;;;5025768;28;19934;-68
2023/07/05 09:11:46;;;;;;;;;;;21.80;99.90;;;;;;5021791;28;20012;-64
2023/07/05 09:14:17;;;;;;;;;;;21.80;99.90;;;;;;5021519;28;19925;-65
2023/07/05 09:17:04;;;;;;;;;;;21.90;99.90;;;;;;5026126;28;20626;-64
2023/07/05 09:19:40;;;;;;;;;;;21.90;99.90;;;;;;5023569;28;19960;-65
2023/07/05 09:22:14;;;;;;;;;;;21.80;99.90;;;;;;5018513;28;20031;-65
2023/07/05 09:24:46;;;;;;;;;;;21.90;99.90;;;;;;5024210;28;19929;-64
2023/07/05 09:27:17;;;;;;;;;;;22.10;99.90;;;;;;5024077;28;19926;-65
2023/07/05 09:30:08;;;;;;;;;;;22.20;99.90;;;;;;5024614;28;20381;-64
2023/07/05 09:32:41;;;;;;;;;;;22.30;99.90;;;;;;5020453;28;19931;-64
2023/07/05 09:35:16;;;;;;;;;;;22.20;99.90;;;;;;5032708;28;19929;-64
2023/07/05 09:37:56;;;;;;;;;;;22.30;99.90;;;;;;5028979;28;19936;-64
2023/07/05 09:40:25;;;;;;;;;;;22.20;99.90;;;;;;5027306;28;20421;-64
2023/07/05 09:42:58;;;;;;;;;;;22.10;99.90;;;;;;5027845;28;19929;-64
2023/07/05 09:45:26;;;;;;;;;;;22.00;99.90;;;;;;5024522;28;19982;-64
2023/07/05 09:47:59;;;;;;;;;;;22.00;99.90;;;;;;5027097;28;19925;-64
2023/07/05 09:50:31;;;;;;;;;;;21.90;99.90;;;;;;5023975;28;19961;-64
2023/07/05 09:53:32;;;;;;;;;;;21.90;99.90;;;;;;5027099;28;20429;-64
2023/07/05 09:56:08;;;;;;;;;;;22.00;99.90;;;;;;5013621;28;19933;-64
2023/07/05 09:58:44;;;;;;;;;;;22.20;99.90;;;;;;5026560;28;19932;-64
2023/07/05 10:01:21;;;;;;;;;;;22.20;99.90;;;;;;5024716;28;19932;-64
2023/07/05 10:03:54;;;;;;;;;;;22.20;99.90;;;;;;5023962;28;19933;-64
2023/07/05 10:06:27;;;;;;;;;;;22.00;99.90;;;;;;5027943;28;19972;-64
2023/07/05 10:09:04;;;;;;;;;;;21.80;99.90;;;;;;5030191;28;19931;-64
2023/07/05 10:11:41;;;;;;;;;;;21.70;99.90;;;;;;5028376;28;19960;-64
2023/07/05 10:14:15;;;;;;;;;;;21.40;99.90;;;;;;5026631;28;19932;-64
2023/07/05 10:16:48;;;;;;;;;;;21.40;99.90;;;;;;5030155;28;19936;-64
2023/07/05 10:19:21;;;;;;;;;;;21.30;99.90;;;;;;5024798;28;19968;-64
2023/07/05 10:22:06;;;;;;;;;;;21.40;99.90;;;;;;5025521;28;19964;-64
2023/07/05 10:24:48;;;;;;;;;;;21.50;99.90;;;;;;5003942;28;19926;-64
2023/07/05 10:27:20;;;;;;;;;;;21.60;99.90;;;;;;5020841;28;20385;-64
2023/07/05 10:29:57;;;;;;;;;;;21.60;99.90;;;;;;5024124;28;20298;-64
2023/07/05 10:32:30;;;;;;;;;;;21.40;99.90;;;;;;5025165;28;19991;-64
2023/07/05 10:35:09;;;;;;;;;;;21.30;99.90;;;;;;5026814;28;20431;-64
2023/07/05 10:37:40;;;;;;;;;;;21.30;99.90;;;;;;5021446;28;19929;-64
2023/07/05 10:40:12;;;;;;;;;;;21.40;99.90;;;;;;5023746;28;19929;-64
2023/07/05 10:42:50;;;;;;;;;;;21.50;99.90;;;;;;5020661;28;19933;-64
2023/07/05 10:45:22;;;;;;;;;;;21.60;99.90;;;;;;5030257;28;19936;-64
2023/07/05 10:47:53;;;;;;;;;;;21.60;99.90;;;;;;5028511;28;19936;-64
2023/07/05 10:50:30;;;;;;;;;;;21.90;99.90;;;;;;5026264;28;19926;-64
2023/07/05 10:53:22;;;;;;;;;;;22.20;99.90;;;;;;5042473;28;20412;-64
2023/07/05 10:56:00;;;;;;;;;;;22.30;99.90;;;;;;5030202;28;19933;-65
2023/07/05 10:58:46;;;;;;;;;;;21.80;99.90;;;;;;5038693;28;20025;-64
2023/07/05 11:01:21;;;;;;;;;;;21.40;99.90;;;;;;5039068;28;19929;-64
2023/07/05 11:04:01;;;;;;;;;;;21.10;99.90;;;;;;5037601;28;20419;-64
2023/07/05 11:06:28;;;;;;;;;;;20.70;99.90;;;;;;5033877;28;19933;-64
2023/07/05 11:08:59;;;;;;;;;;;20.40;99.90;;;;;;5041221;28;19924;-64
2023/07/05 11:11:28;;;;;;;;;;;20.10;99.90;;;;;;5036212;28;19925;-64
2023/07/05 11:14:03;;;;;;;;;;;19.90;99.90;;;;;;5032408;28;20063;-64
2023/07/05 11:16:35;;;;;;;;;;;19.80;99.90;;;;;;5024741;28;19933;-64
2023/07/05 11:19:10;;;;;;;;;;;19.80;99.90;;;;;;5034120;28;19980;-64
2023/07/05 11:21:44;;;;;;;;;;;20.10;99.90;;;;;;5037134;28;19940;-64
2023/07/05 11:24:25;;;;;;;;;;;20.30;99.90;;;;;;5007944;28;20001;-64
2023/07/05 11:26:57;;;;;;;;;;;20.30;99.90;;;;;;5014832;28;20396;-64
2023/07/05 11:29:32;;;;;;;;;;;20.30;99.90;;;;;;5024218;28;19932;-64
2023/07/05 11:32:08;;;;;;;;;;;20.30;99.90;;;;;;5028509;28;19944;-64
2023/07/05 11:34:41;;;;;;;;;;;20.50;99.90;;;;;;5027793;28;19926;-64
2023/07/05 11:37:12;;;;;;;;;;;20.60;99.90;;;;;;5026755;28;19943;-64
2023/07/05 11:39:48;;;;;;;;;;;20.70;99.90;;;;;;5026725;28;19929;-64
2023/07/05 11:42:21;;;;;;;;;;;20.90;99.90;;;;;;5025355;28;19925;-64
2023/07/05 11:44:52;;;;;;;;;;;21.20;99.90;;;;;;5024836;28;20289;-64
2023/07/05 11:47:24;;;;;;;;;;;21.30;99.90;;;;;;5029340;28;19929;-64
2023/07/05 11:50:07;;;;;;;;;;;21.40;99.90;;;;;;5032719;28;19925;-64
2023/07/05 11:52:43;;;;;;;;;;;21.50;99.90;;;;;;5031322;28;19925;-64
2023/07/05 11:55:21;;;;;;;;;;;21.50;99.90;;;;;;5032542;28;19929;-64
2023/07/05 11:57:52;;;;;;;;;;;21.50;99.90;;;;;;5034759;28;19956;-64
2023/07/05 12:00:30;;;;;;;;;;;21.40;99.90;;;;;;5033237;28;19936;-64
2023/07/05 12:03:06;;;;;;;;;;;21.30;99.90;;;;;;5030370;28;19933;-64
2023/07/05 12:05:39;;;;;;;;;;;21.30;99.90;;;;;;5032805;28;20435;-64
2023/07/05 12:08:29;;;;;;;;;;;21.50;99.90;;;;;;5030099;28;19940;-64
2023/07/05 12:11:00;;;;;;;;;;;21.50;99.90;;;;;;5030898;28;20427;-64
2023/07/05 12:13:33;;;;;;;;;;;21.70;99.90;;;;;;5033080;28;19966;-64
2023/07/05 12:16:06;;;;;;;;;;;21.70;99.90;;;;;;5028291;28;20302;-64
2023/07/05 12:18:38;;;;;;;;;;;21.70;99.90;;;;;;5033715;28;19933;-64
2023/07/05 12:21:11;;;;;;;;;;;21.70;99.90;;;;;;5029356;28;20027;-64
2023/07/05 12:23:44;;;;;;;;;;;21.60;99.90;;;;;;5033262;28;20324;-64
2023/07/05 12:26:19;;;;;;;;;;;21.40;99.90;;;;;;5031781;28;19929;-64
2023/07/05 12:28:46;;;;;;;;;;;21.30;99.90;;;;;;5033346;28;20409;-65
2023/07/05 12:31:19;;;;;;;;;;;21.30;99.90;;;;;;5029556;28;19933;-64
2023/07/05 12:33:54;;;;;;;;;;;21.30;99.90;;;;;;5031865;28;19931;-64
2023/07/05 12:36:25;;;;;;;;;;;21.20;99.90;;;;;;5028027;28;20021;-64
2023/07/05 12:39:07;;;;;;;;;;;21.20;99.90;;;;;;5028607;28;20381;-64
2023/07/05 12:41:39;;;;;;;;;;;21.20;99.90;;;;;;5031952;28;19935;-64
2023/07/05 12:44:15;;;;;;;;;;;21.20;99.90;;;;;;5030480;28;19929;-64
2023/07/05 12:46:48;;;;;;;;;;;21.20;99.90;;;;;;5026049;28;20024;-64
2023/07/05 12:49:23;;;;;;;;;;;21.20;99.90;;;;;;5038012;28;20011;-64
2023/07/05 12:51:58;;;;;;;;;;;21.20;99.90;;;;;;5028460;28;19933;-64
2023/07/05 12:54:30;;;;;;;;;;;21.30;99.90;;;;;;5025844;28;19941;-64
2023/07/05 12:57:01;;;;;;;;;;;21.60;99.90;;;;;;5019067;28;19925;-65
2023/07/05 12:59:35;;;;;;;;;;;21.80;99.90;;;;;;5027430;28;19926;-64
2023/07/05 13:02:13;;;;;;;;;;;21.90;99.90;;;;;;5026921;28;19971;-64
2023/07/05 13:04:45;;;;;;;;;;;22.00;99.90;;;;;;5025343;28;19933;-64
2023/07/05 13:07:14;;;;;;;;;;;22.00;99.90;;;;;;5026118;28;20017;-65
2023/07/05 13:09:47;;;;;;;;;;;21.90;99.90;;;;;;5025230;28;19940;-64
2023/07/05 13:12:19;;;;;;;;;;;21.90;99.90;;;;;;5024525;28;20435;-64
2023/07/05 13:14:58;;;;;;;;;;;21.90;99.90;;;;;;5025484;28;19965;-64
2023/07/05 13:17:26;;;;;;;;;;;22.00;99.90;;;;;;5023421;28;19936;-64
2023/07/05 13:20:05;;;;;;;;;;;22.00;99.90;;;;;;5023585;28;20022;-64
2023/07/05 13:22:38;;;;;;;;;;;22.10;99.90;;;;;;5023810;28;20362;-64
2023/07/05 13:25:26;;;;;;;;;;;22.10;99.90;;;;;;5021384;28;19929;-64
2023/07/05 13:27:54;;;;;;;;;;;22.00;99.90;;;;;;5023675;28;19929;-64
2023/07/05 13:30:28;;;;;;;;;;;22.00;99.90;;;;;;5025284;28;19939;-64
2023/07/05 13:33:01;;;;;;;;;;;22.10;99.90;;;;;;5025213;28;19929;-64
2023/07/05 13:35:34;;;;;;;;;;;22.00;99.90;;;;;;5023248;28;19926;-64
2023/07/05 13:38:07;;;;;;;;;;;22.20;99.90;;;;;;5026288;28;20502;-64
2023/07/05 13:40:48;;;;;;;;;;;22.30;99.90;;;;;;5023473;28;19929;-65
2023/07/05 13:43:20;;;;;;;;;;;22.50;99.90;;;;;;5023107;28;19925;-64
2023/07/05 13:45:52;;;;;;;;;;;22.80;99.90;;;;;;5025111;28;19929;-64
2023/07/05 13:48:24;;;;;;;;;;;22.90;99.90;;;;;;5025907;28;19925;-64
2023/07/05 13:50:56;;;;;;;;;;;22.80;99.90;;;;;;5025776;28;20332;-64
2023/07/05 13:53:28;;;;;;;;;;;22.70;99.90;;;;;;5025532;28;19932;-65
2023/07/05 13:56:00;;;;;;;;;;;22.90;99.90;;;;;;5024954;28;19929;-65
2023/07/05 13:58:27;;;;;;;;;;;23.00;99.90;;;;;;5022205;28;19925;-65
2023/07/05 14:00:59;;;;;;;;;;;22.90;99.90;;;;;;5026523;28;20400;-66
2023/07/05 14:03:31;;;;;;;;;;;22.60;99.90;;;;;;5025315;28;19983;-67
2023/07/05 14:06:02;;;;;;;;;;;22.30;99.90;;;;;;5023254;28;19983;-65
2023/07/05 14:08:34;;;;;;;;;;;22.30;99.90;;;;;;5029694;28;20515;-65
2023/07/05 14:11:10;;;;;;;;;;;22.60;99.90;;;;;;5030919;28;19933;-65
2023/07/05 14:13:42;;;;;;;;;;;23.20;99.90;;;;;;5030278;28;19935;-66
2023/07/05 14:16:13;;;;;;;;;;;23.50;99.90;;;;;;5030299;28;19940;-65
2023/07/05 14:18:44;;;;;;;;;;;23.60;99.90;;;;;;5028147;28;19929;-65
2023/07/05 14:21:33;;;;;;;;;;;23.40;99.90;;;;;;5027098;28;19991;-64
2023/07/05 14:24:00;;;;;;;;;;;23.20;99.90;;;;;;5029316;28;19972;-64
2023/07/05 14:26:32;;;;;;;;;;;22.90;99.90;;;;;;5025964;28;20455;-64
2023/07/05 14:29:05;;;;;;;;;;;22.90;99.90;;;;;;5027039;28;19929;-64
2023/07/05 14:31:37;;;;;;;;;;;23.00;99.90;;;;;;5030765;28;19933;-65
2023/07/05 14:34:04;;;;;;;;;;;22.90;99.90;;;;;;5030715;28;20393;-65
2023/07/05 14:36:36;;;;;;;;;;;23.00;99.90;;;;;;5026237;28;19957;-65
2023/07/05 14:39:09;;;;;;;;;;;22.90;99.90;;;;;;5027101;28;19957;-64
2023/07/05 14:41:40;;;;;;;;;;;22.90;99.90;;;;;;5025305;28;19925;-65
2023/07/05 14:44:12;;;;;;;;;;;23.20;99.90;;;;;;5026488;28;19929;-64
2023/07/05 14:46:39;;;;;;;;;;;23.30;99.90;;;;;;5024412;28;19983;-65
2023/07/05 14:49:12;;;;;;;;;;;23.70;99.90;;;;;;5024966;28;20010;-65